Time,TemperatureF,DewpointF,PressureIn,WindDirection,WindDirectionDegrees,WindSpeedMPH,WindSpeedGustMPH,Humidity,HourlyPrecipIn,Conditions,Clouds,dailyrainin,SoftwareType,DateUTC
2013-11-05 00:01:00,32.9,27.7,29.40,NNW,337,0.0,3.4,81,0.00,,,0.00,WUHU21623XXSP,2013-11-05 09:01:00,
2013-11-05 00:06:00,32.7,27.5,29.40,NNW,337,0.0,3.8,81,0.00,,,0.00,WUHU21623XXSP,2013-11-05 09:06:00,
2013-11-05 00:11:00,32.5,27.4,29.40,NNW,337,0.0,3.8,81,0.00,,,0.00,WUHU21623XXSP,2013-11-05 09:11:00,
2013-11-05 00:16:00,32.5,27.4,29.40,North,0,0.0,5.4,81,0.00,,,0.00,WUHU21623XXSP,2013-11-05 09:16:00,
2013-11-05 00:21:00,32.5,27.4,29.40,North,0,0.0,5.4,81,0.00,,,0.00,WUHU21623XXSP,2013-11-05 09:21:00,
2013-11-05 00:26:00,32.5,27.4,29.40,North,0,0.0,3.8,81,0.00,,,0.00,WUHU21623XXSP,2013-11-05 09:26:00,
2013-11-05 00:31:00,32.5,27.4,29.40,North,0,3.4,4.0,81,0.00,,,0.00,WUHU21623XXSP,2013-11-05 09:31:00,
2013-11-05 00:36:00,32.5,27.7,29.41,North,0,2.7,4.9,82,0.00,,,0.00,WUHU21623XXSP,2013-11-05 09:36:00,
2013-11-05 00:41:00,32.5,27.4,29.41,North,0,3.1,5.8,81,0.00,,,0.00,WUHU21623XXSP,2013-11-05 09:41:00,
2013-11-05 00:46:00,32.5,27.4,29.41,NW,315,4.0,6.3,81,0.00,,,0.00,WUHU21623XXSP,2013-11-05 09:46:00,
2013-11-05 00:51:00,32.5,27.4,29.41,SW,225,0.0,6.3,81,0.00,,,0.00,WUHU21623XXSP,2013-11-05 09:51:00,
2013-11-05 00:56:00,32.4,27.2,29.41,NNE,22,3.4,4.9,81,0.00,,,0.00,WUHU21623XXSP,2013-11-05 09:56:00,
2013-11-05 01:01:00,32.4,27.5,29.42,NNE,22,1.3,4.9,82,0.00,,,0.00,WUHU21623XXSP,2013-11-05 10:01:00,
2013-11-05 01:06:00,32.4,27.5,29.42,NW,315,3.6,6.9,82,0.00,,,0.00,WUHU21623XXSP,2013-11-05 10:06:00,
2013-11-05 01:11:00,32.4,27.5,29.42,NNW,337,4.0,6.9,82,0.00,,,0.00,WUHU21623XXSP,2013-11-05 10:11:00,
2013-11-05 01:16:00,32.4,27.5,29.41,NW,315,5.1,6.7,82,0.00,,,0.00,WUHU21623XXSP,2013-11-05 10:16:00,
2013-11-05 01:21:00,32.2,27.3,29.42,NW,315,2.9,6.3,82,0.00,,,0.00,WUHU21623XXSP,2013-11-05 10:21:00,
2013-11-05 01:26:00,32.2,27.3,29.42,North,0,2.9,5.8,82,0.00,,,0.00,WUHU21623XXSP,2013-11-05 10:26:00,
2013-11-05 01:31:00,32.2,27.3,29.42,NW,315,5.8,5.8,82,0.00,,,0.00,WUHU21623XXSP,2013-11-05 10:31:00,
2013-11-05 01:36:00,31.8,27.0,29.42,NNW,337,4.0,5.8,82,0.00,,,0.00,WUHU21623XXSP,2013-11-05 10:36:00,
2013-11-05 01:41:00,31.8,27.3,29.43,NNW,337,0.9,5.4,83,0.00,,,0.00,WUHU21623XXSP,2013-11-05 10:41:00,
2013-11-05 01:46:00,31.8,27.3,29.43,NNW,337,2.7,5.1,83,0.00,,,0.00,WUHU21623XXSP,2013-11-05 10:46:00,
2013-11-05 01:51:00,31.6,27.1,29.43,NNW,337,4.0,4.5,83,0.00,,,0.00,WUHU21623XXSP,2013-11-05 10:51:00,
2013-11-05 01:56:00,31.6,27.1,29.43,NNW,337,0.0,4.5,83,0.00,,,0.00,WUHU21623XXSP,2013-11-05 10:56:00,
2013-11-05 02:01:00,31.6,27.4,29.43,NW,315,3.1,6.7,84,0.00,,,0.00,WUHU21623XXSP,2013-11-05 11:01:00,
2013-11-05 02:06:00,31.6,27.4,29.43,NNW,337,2.0,6.7,84,0.00,,,0.00,WUHU21623XXSP,2013-11-05 11:06:00,
2013-11-05 02:11:00,31.6,27.4,29.44,NW,315,2.7,5.6,84,0.00,,,0.00,WUHU21623XXSP,2013-11-05 11:11:00,
2013-11-05 02:16:00,31.6,27.4,29.44,NNW,337,6.7,9.6,84,0.00,,,0.00,WUHU21623XXSP,2013-11-05 11:16:00,
2013-11-05 02:21:00,31.6,27.4,29.44,NW,315,8.1,9.6,84,0.00,,,0.00,WUHU21623XXSP,2013-11-05 11:21:00,
2013-11-05 02:26:00,31.8,27.9,29.44,NW,315,7.8,9.4,85,0.00,,,0.00,WUHU21623XXSP,2013-11-05 11:26:00,
2013-11-05 02:31:00,31.8,27.6,29.44,NNW,337,6.5,9.6,84,0.00,,,0.00,WUHU21623XXSP,2013-11-05 11:31:00,
2013-11-05 02:36:00,32.0,27.8,29.44,NNW,337,4.5,10.7,84,0.00,,,0.00,WUHU21623XXSP,2013-11-05 11:36:00,
2013-11-05 02:41:00,32.2,27.9,29.44,NNW,337,3.4,10.7,84,0.00,,,0.00,WUHU21623XXSP,2013-11-05 11:41:00,
2013-11-05 02:46:00,32.2,27.9,29.44,WNW,292,2.9,7.6,84,0.00,,,0.00,WUHU21623XXSP,2013-11-05 11:46:00,
2013-11-05 02:51:00,32.2,27.9,29.44,NNW,337,4.5,7.2,84,0.00,,,0.00,WUHU21623XXSP,2013-11-05 11:51:00,
2013-11-05 02:56:00,32.2,27.9,29.45,NW,315,0.0,6.9,84,0.00,,,0.00,WUHU21623XXSP,2013-11-05 11:56:00,
2013-11-05 03:01:00,32.2,27.9,29.45,North,0,1.1,4.7,84,0.00,,,0.00,WUHU21623XXSP,2013-11-05 12:01:00,
2013-11-05 03:06:00,31.8,27.6,29.46,West,270,0.0,2.2,84,0.00,,,0.00,WUHU21623XXSP,2013-11-05 12:06:00,
2013-11-05 03:11:00,31.8,27.6,29.46,WSW,247,0.0,1.8,84,0.00,,,0.00,WUHU21623XXSP,2013-11-05 12:11:00,
2013-11-05 03:16:00,31.8,27.6,29.46,WSW,247,0.0,1.8,84,0.00,,,0.00,WUHU21623XXSP,2013-11-05 12:16:00,
2013-11-05 03:21:00,31.8,27.6,29.46,WSW,247,0.0,0.0,84,0.00,,,0.00,WUHU21623XXSP,2013-11-05 12:21:00,
2013-11-05 03:26:00,31.6,27.4,29.46,WSW,247,0.0,0.0,84,0.00,,,0.00,WUHU21623XXSP,2013-11-05 12:26:00,
2013-11-05 03:31:00,31.6,27.4,29.46,West,270,0.0,1.3,84,0.00,,,0.00,WUHU21623XXSP,2013-11-05 12:31:00,
2013-11-05 03:36:00,31.6,27.4,29.47,West,270,0.0,1.3,84,0.00,,,0.00,WUHU21623XXSP,2013-11-05 12:36:00,
2013-11-05 03:41:00,31.6,27.4,29.46,West,270,0.0,0.0,84,0.00,,,0.00,WUHU21623XXSP,2013-11-05 12:41:00,
2013-11-05 03:46:00,31.6,27.4,29.47,West,270,0.0,0.0,84,0.00,,,0.00,WUHU21623XXSP,2013-11-05 12:46:00,
2013-11-05 03:51:00,31.6,27.4,29.47,SW,225,0.0,0.7,84,0.00,,,0.00,WUHU21623XXSP,2013-11-05 12:51:00,
2013-11-05 03:56:00,31.6,27.4,29.47,SW,225,0.0,0.7,84,0.00,,,0.00,WUHU21623XXSP,2013-11-05 12:56:00,
2013-11-05 04:01:00,31.6,27.4,29.47,SW,225,0.0,0.0,84,0.00,,,0.00,WUHU21623XXSP,2013-11-05 13:01:00,
2013-11-05 04:06:00,31.6,27.4,29.47,SW,225,0.0,0.0,84,0.00,,,0.00,WUHU21623XXSP,2013-11-05 13:06:00,
2013-11-05 04:11:00,31.6,27.4,29.47,SW,225,0.0,0.0,84,0.00,,,0.00,WUHU21623XXSP,2013-11-05 13:11:00,
2013-11-05 04:16:00,31.6,27.4,29.48,SW,225,0.0,0.0,84,0.00,,,0.00,WUHU21623XXSP,2013-11-05 13:16:00,
2013-11-05 04:21:00,31.3,27.0,29.48,SW,225,0.0,0.0,84,0.00,,,0.00,WUHU21623XXSP,2013-11-05 13:21:00,
2013-11-05 04:26:00,31.3,27.0,29.48,SW,225,0.0,0.0,84,0.00,,,0.00,WUHU21623XXSP,2013-11-05 13:26:00,
2013-11-05 04:31:00,30.9,26.7,29.48,SW,225,1.8,2.2,84,0.00,,,0.00,WUHU21623XXSP,2013-11-05 13:31:00,
2013-11-05 04:36:00,30.7,26.5,29.49,SW,225,0.0,2.2,84,0.00,,,0.00,WUHU21623XXSP,2013-11-05 13:36:00,
2013-11-05 04:41:00,30.6,26.3,29.49,SW,225,0.0,0.9,84,0.00,,,0.00,WUHU21623XXSP,2013-11-05 13:41:00,
2013-11-05 04:46:00,30.2,26.0,29.49,SW,225,0.0,0.9,84,0.00,,,0.00,WUHU21623XXSP,2013-11-05 13:46:00,
2013-11-05 04:51:00,30.0,25.8,29.50,SW,225,0.0,0.0,84,0.00,,,0.00,WUHU21623XXSP,2013-11-05 13:51:00,
2013-11-05 04:56:00,30.0,25.8,29.50,SW,225,0.0,0.0,84,0.00,,,0.00,WUHU21623XXSP,2013-11-05 13:56:00,
2013-11-05 05:01:00,30.0,25.8,29.50,SW,225,0.0,0.0,84,0.00,,,0.00,WUHU21623XXSP,2013-11-05 14:01:00,
2013-11-05 05:06:00,30.0,25.8,29.51,SW,225,0.0,0.0,84,0.00,,,0.00,WUHU21623XXSP,2013-11-05 14:06:00,
2013-11-05 05:11:00,30.0,25.8,29.51,SW,225,0.0,0.0,84,0.00,,,0.00,WUHU21623XXSP,2013-11-05 14:11:00,
2013-11-05 05:16:00,30.0,25.8,29.51,SW,225,0.0,0.0,84,0.00,,,0.00,WUHU21623XXSP,2013-11-05 14:16:00,
2013-11-05 05:21:00,30.0,25.8,29.52,SW,225,0.0,0.0,84,0.00,,,0.00,WUHU21623XXSP,2013-11-05 14:21:00,
2013-11-05 05:26:00,29.8,25.8,29.52,SW,225,0.0,0.0,84,0.00,,,0.00,WUHU21623XXSP,2013-11-05 14:26:00,
2013-11-05 05:31:00,29.8,25.6,29.52,SW,225,0.0,0.0,84,0.00,,,0.00,WUHU21623XXSP,2013-11-05 14:31:00,
2013-11-05 05:36:00,29.7,25.4,29.52,SW,225,0.0,0.0,84,0.00,,,0.00,WUHU21623XXSP,2013-11-05 14:36:00,
2013-11-05 05:41:00,29.7,25.7,29.52,SW,225,0.0,0.0,85,0.00,,,0.00,WUHU21623XXSP,2013-11-05 14:41:00,
2013-11-05 05:46:00,29.8,25.9,29.52,NNW,337,0.7,3.4,85,0.00,,,0.00,WUHU21623XXSP,2013-11-05 14:46:00,
2013-11-05 05:51:00,30.0,26.1,29.52,NNW,337,5.8,5.8,85,0.00,,,0.00,WUHU21623XXSP,2013-11-05 14:51:00,
2013-11-05 05:56:00,30.0,26.1,29.53,NW,315,3.6,5.8,85,0.00,,,0.00,WUHU21623XXSP,2013-11-05 14:56:00,
2013-11-05 06:01:00,30.0,26.1,29.53,North,0,6.3,6.7,85,0.00,,,0.00,WUHU21623XXSP,2013-11-05 15:01:00,
2013-11-05 06:06:00,30.2,26.2,29.54,North,0,2.2,6.7,85,0.00,,,0.00,WUHU21623XXSP,2013-11-05 15:06:00,
2013-11-05 06:11:00,30.2,26.2,29.54,North,0,0.0,6.3,85,0.00,,,0.00,WUHU21623XXSP,2013-11-05 15:11:00,
2013-11-05 06:16:00,30.2,26.2,29.54,NNW,337,0.0,4.9,85,0.00,,,0.00,WUHU21623XXSP,2013-11-05 15:16:00,
2013-11-05 06:21:00,30.2,26.2,29.54,NNW,337,0.0,4.9,85,0.00,,,0.00,WUHU21623XXSP,2013-11-05 15:21:00,
2013-11-05 06:26:00,30.2,26.2,29.54,NNW,337,0.0,3.8,85,0.00,,,0.00,WUHU21623XXSP,2013-11-05 15:26:00,
2013-11-05 06:31:00,30.2,26.2,29.55,NNW,337,3.4,3.6,85,0.00,,,0.00,WUHU21623XXSP,2013-11-05 15:31:00,
2013-11-05 06:36:00,30.2,26.2,29.55,North,0,0.0,3.6,85,0.00,,,0.00,WUHU21623XXSP,2013-11-05 15:36:00,
2013-11-05 06:41:00,30.2,26.2,29.56,North,0,0.0,2.7,85,0.00,,,0.00,WUHU21623XXSP,2013-11-05 15:41:00,
2013-11-05 06:46:00,30.2,26.2,29.56,North,0,0.0,2.7,85,0.00,,,0.00,WUHU21623XXSP,2013-11-05 15:46:00,
2013-11-05 06:51:00,30.4,26.2,29.56,NNE,22,0.9,5.1,85,0.00,,,0.00,WUHU21623XXSP,2013-11-05 15:51:00,
2013-11-05 06:56:00,30.6,26.6,29.57,NNE,22,1.1,5.1,85,0.00,,,0.00,WUHU21623XXSP,2013-11-05 15:56:00,
2013-11-05 07:01:00,30.6,26.6,29.57,NNE,22,0.0,4.0,85,0.00,,,0.00,WUHU21623XXSP,2013-11-05 16:01:00,
2013-11-05 07:06:00,30.7,26.8,29.57,NNE,22,1.8,3.8,85,0.00,,,0.00,WUHU21623XXSP,2013-11-05 16:06:00,
2013-11-05 07:11:00,30.6,26.6,29.57,NNE,22,0.0,3.8,85,0.00,,,0.00,WUHU21623XXSP,2013-11-05 16:11:00,
2013-11-05 07:16:00,30.6,26.6,29.57,NNE,22,0.0,2.0,85,0.00,,,0.00,WUHU21623XXSP,2013-11-05 16:16:00,
2013-11-05 07:21:00,30.6,26.6,29.57,NNE,22,0.0,1.8,85,0.00,,,0.00,WUHU21623XXSP,2013-11-05 16:21:00,
2013-11-05 07:26:00,30.6,26.6,29.57,NNE,22,0.0,0.0,85,0.00,,,0.00,WUHU21623XXSP,2013-11-05 16:26:00,
2013-11-05 07:31:00,30.4,26.4,29.58,NNE,22,0.0,0.0,85,0.00,,,0.00,WUHU21623XXSP,2013-11-05 16:31:00,
2013-11-05 07:36:00,30.2,26.2,29.58,WNW,292,0.0,0.0,85,0.00,,,0.00,WUHU21623XXSP,2013-11-05 16:36:00,
2013-11-05 07:41:00,30.2,26.2,29.58,WNW,292,0.0,0.0,85,0.00,,,0.00,WUHU21623XXSP,2013-11-05 16:41:00,
2013-11-05 07:46:00,30.0,26.1,29.58,WNW,292,0.0,0.0,85,0.00,,,0.00,WUHU21623XXSP,2013-11-05 16:46:00,
2013-11-05 07:51:00,30.0,26.1,29.58,WNW,292,0.0,0.0,85,0.00,,,0.00,WUHU21623XXSP,2013-11-05 16:51:00,
2013-11-05 07:56:00,30.0,26.1,29.58,WNW,292,0.0,0.0,85,0.00,,,0.00,WUHU21623XXSP,2013-11-05 16:56:00,
2013-11-05 08:01:00,30.0,26.1,29.58,WNW,292,0.0,0.0,85,0.00,,,0.00,WUHU21623XXSP,2013-11-05 17:01:00,
2013-11-05 08:06:00,29.8,25.9,29.58,WNW,292,0.0,0.0,85,0.00,,,0.00,WUHU21623XXSP,2013-11-05 17:06:00,
2013-11-05 08:11:00,29.8,25.9,29.59,West,270,0.0,0.0,85,0.00,,,0.00,WUHU21623XXSP,2013-11-05 17:11:00,
2013-11-05 08:16:00,29.8,25.9,29.59,NNW,337,0.0,4.3,85,0.00,,,0.00,WUHU21623XXSP,2013-11-05 17:16:00,
2013-11-05 08:21:00,30.0,26.1,29.60,NNW,337,0.0,4.3,85,0.00,,,0.00,WUHU21623XXSP,2013-11-05 17:21:00,
2013-11-05 08:26:00,30.0,26.1,29.60,NNW,337,0.0,2.9,85,0.00,,,0.00,WUHU21623XXSP,2013-11-05 17:26:00,
2013-11-05 08:31:00,30.0,26.1,29.61,NNW,337,0.0,2.9,85,0.00,,,0.00,WUHU21623XXSP,2013-11-05 17:31:00,
2013-11-05 08:36:00,30.0,26.1,29.61,North,0,0.0,0.0,85,0.00,,,0.00,WUHU21623XXSP,2013-11-05 17:36:00,
2013-11-05 08:41:00,30.0,26.1,29.62,North,0,0.0,1.6,85,0.00,,,0.00,WUHU21623XXSP,2013-11-05 17:41:00,
2013-11-05 08:46:00,30.2,26.2,29.62,NNE,22,0.0,3.1,85,0.00,,,0.00,WUHU21623XXSP,2013-11-05 17:46:00,
2013-11-05 08:51:00,30.4,26.4,29.62,NNE,22,0.4,3.1,85,0.00,,,0.00,WUHU21623XXSP,2013-11-05 17:51:00,
2013-11-05 08:56:00,30.6,26.6,29.62,NNE,22,1.6,2.7,85,0.00,,,0.00,WUHU21623XXSP,2013-11-05 17:56:00,
2013-11-05 09:01:00,30.7,26.8,29.63,NNE,22,2.5,2.7,85,0.00,,,0.00,WUHU21623XXSP,2013-11-05 18:01:00,
2013-11-05 09:06:00,30.6,26.6,29.63,NNE,22,0.0,3.1,85,0.00,,,0.00,WUHU21623XXSP,2013-11-05 18:06:00,
2013-11-05 09:11:00,30.7,26.8,29.63,North,0,1.1,3.1,85,0.00,,,0.00,WUHU21623XXSP,2013-11-05 18:11:00,
2013-11-05 09:16:00,30.7,26.8,29.64,North,0,0.0,2.2,85,0.00,,,0.00,WUHU21623XXSP,2013-11-05 18:16:00,
2013-11-05 09:21:00,30.7,26.8,29.64,NNE,22,2.9,3.4,85,0.00,,,0.00,WUHU21623XXSP,2013-11-05 18:21:00,
2013-11-05 09:26:00,30.9,27.0,29.65,NNE,22,0.0,4.7,85,0.00,,,0.00,WUHU21623XXSP,2013-11-05 18:26:00,
2013-11-05 09:31:00,31.1,27.1,29.65,NNW,337,0.0,4.9,85,0.00,,,0.00,WUHU21623XXSP,2013-11-05 18:31:00,
2013-11-05 09:36:00,31.3,27.0,29.65,NW,315,0.0,4.9,84,0.00,,,0.00,WUHU21623XXSP,2013-11-05 18:36:00,
2013-11-05 09:41:00,31.3,27.0,29.65,NNE,22,0.0,6.9,84,0.00,,,0.00,WUHU21623XXSP,2013-11-05 18:41:00,
2013-11-05 09:46:00,31.6,27.4,29.66,NNW,337,0.0,6.9,84,0.00,,,0.00,WUHU21623XXSP,2013-11-05 18:46:00,
2013-11-05 09:51:00,31.6,27.4,29.66,NNW,337,4.9,7.8,84,0.00,,,0.00,WUHU21623XXSP,2013-11-05 18:51:00,
2013-11-05 09:56:00,31.8,27.6,29.66,North,0,2.7,7.8,84,0.00,,,0.00,WUHU21623XXSP,2013-11-05 18:56:00,
2013-11-05 10:01:00,32.2,27.9,29.66,NNE,22,0.0,5.8,84,0.00,,,0.00,WUHU21623XXSP,2013-11-05 19:01:00,
2013-11-05 10:06:00,32.2,27.9,29.67,NNE,22,0.0,2.2,84,0.00,,,0.00,WUHU21623XXSP,2013-11-05 19:06:00,
2013-11-05 10:11:00,32.5,28.2,29.67,NNE,22,0.0,1.3,84,0.00,,,0.00,WUHU21623XXSP,2013-11-05 19:11:00,
2013-11-05 10:16:00,32.7,28.4,29.67,NNE,22,0.0,0.0,84,0.00,,,0.00,WUHU21623XXSP,2013-11-05 19:16:00,
2013-11-05 10:21:00,32.9,28.3,29.68,NNE,22,0.0,0.0,83,0.00,,,0.00,WUHU21623XXSP,2013-11-05 19:21:00,
2013-11-05 10:26:00,33.1,28.4,29.68,NNE,22,0.0,0.0,83,0.00,,,0.00,WUHU21623XXSP,2013-11-05 19:26:00,
2013-11-05 10:31:00,33.1,28.4,29.68,NNE,22,0.0,1.8,83,0.00,,,0.00,WUHU21623XXSP,2013-11-05 19:31:00,
2013-11-05 10:36:00,33.4,28.8,29.68,NNE,22,0.0,1.8,83,0.00,,,0.00,WUHU21623XXSP,2013-11-05 19:36:00,
2013-11-05 10:41:00,33.4,28.8,29.69,NNE,22,0.0,0.0,83,0.00,,,0.00,WUHU21623XXSP,2013-11-05 19:41:00,
2013-11-05 10:46:00,33.6,28.9,29.69,NNE,22,0.0,0.0,83,0.00,,,0.00,WUHU21623XXSP,2013-11-05 19:46:00,
2013-11-05 10:51:00,33.8,28.8,29.69,NNE,22,2.0,2.0,82,0.00,,,0.00,WUHU21623XXSP,2013-11-05 19:51:00,
2013-11-05 10:56:00,34.2,29.4,29.70,NNE,22,0.0,2.0,83,0.00,,,0.00,WUHU21623XXSP,2013-11-05 19:56:00,
2013-11-05 11:01:00,34.3,29.6,29.70,NNE,22,0.0,1.8,83,0.00,,,0.00,WUHU21623XXSP,2013-11-05 20:01:00,
2013-11-05 11:06:00,34.3,29.6,29.70,NNE,22,0.0,0.0,83,0.00,,,0.00,WUHU21623XXSP,2013-11-05 20:06:00,
2013-11-05 11:11:00,34.5,29.5,29.70,NNE,22,0.0,0.0,82,0.00,,,0.00,WUHU21623XXSP,2013-11-05 20:11:00,
2013-11-05 11:16:00,34.7,29.7,29.71,NE,45,0.0,0.0,82,0.00,,,0.00,WUHU21623XXSP,2013-11-05 20:16:00,
2013-11-05 11:21:00,34.9,29.9,29.71,SE,135,0.0,0.0,82,0.00,,,0.00,WUHU21623XXSP,2013-11-05 20:21:00,
2013-11-05 11:26:00,34.9,29.9,29.71,NNE,22,1.3,1.6,82,0.00,,,0.00,WUHU21623XXSP,2013-11-05 20:26:00,
2013-11-05 11:31:00,35.2,30.2,29.72,NNW,337,0.0,1.6,82,0.00,,,0.00,WUHU21623XXSP,2013-11-05 20:31:00,
2013-11-05 11:36:00,35.2,30.2,29.72,NNW,337,0.0,1.6,82,0.00,,,0.00,WUHU21623XXSP,2013-11-05 20:36:00,
2013-11-05 11:41:00,35.4,30.4,29.72,SW,225,3.1,3.6,82,0.00,,,0.00,WUHU21623XXSP,2013-11-05 20:41:00,
2013-11-05 11:46:00,35.8,30.8,29.72,SW,225,2.2,3.6,82,0.00,,,0.00,WUHU21623XXSP,2013-11-05 20:46:00,
2013-11-05 11:51:00,35.8,30.8,29.72,SW,225,0.0,3.6,82,0.00,,,0.00,WUHU21623XXSP,2013-11-05 20:51:00,
2013-11-05 11:56:00,36.1,31.1,29.72,SW,225,0.0,2.7,82,0.00,,,0.00,WUHU21623XXSP,2013-11-05 20:56:00,
2013-11-05 12:01:00,36.3,31.3,29.73,SW,225,0.0,0.0,82,0.00,,,0.00,WUHU21623XXSP,2013-11-05 21:01:00,
2013-11-05 12:06:00,36.7,31.4,29.73,WSW,247,0.0,0.0,81,0.00,,,0.00,WUHU21623XXSP,2013-11-05 21:06:00,
2013-11-05 12:11:00,37.0,31.7,29.73,WSW,247,0.0,0.0,81,0.00,,,0.00,WUHU21623XXSP,2013-11-05 21:11:00,
2013-11-05 12:16:00,37.2,31.6,29.74,WSW,247,0.0,0.0,80,0.00,,,0.00,WUHU21623XXSP,2013-11-05 21:16:00,
2013-11-05 12:21:00,37.6,31.3,29.73,NW,315,0.0,2.0,78,0.00,,,0.00,WUHU21623XXSP,2013-11-05 21:21:00,
2013-11-05 12:26:00,37.9,31.7,29.74,NW,315,0.0,2.0,78,0.00,,,0.00,WUHU21623XXSP,2013-11-05 21:26:00,
2013-11-05 12:31:00,37.9,31.4,29.74,NNW,337,0.0,2.7,77,0.00,,,0.00,WUHU21623XXSP,2013-11-05 21:31:00,
2013-11-05 12:36:00,38.1,31.2,29.75,NNW,337,0.0,2.7,76,0.00,,,0.00,WUHU21623XXSP,2013-11-05 21:36:00,
2013-11-05 12:41:00,38.3,31.4,29.75,NW,315,0.0,0.0,76,0.00,,,0.00,WUHU21623XXSP,2013-11-05 21:41:00,
2013-11-05 12:46:00,38.3,31.4,29.74,NW,315,0.0,0.0,76,0.00,,,0.00,WUHU21623XXSP,2013-11-05 21:46:00,
2013-11-05 12:51:00,38.3,31.4,29.75,NW,315,0.0,0.0,76,0.00,,,0.00,WUHU21623XXSP,2013-11-05 21:51:00,
2013-11-05 12:56:00,38.5,31.2,29.75,West,270,0.0,0.0,75,0.00,,,0.00,WUHU21623XXSP,2013-11-05 21:56:00,
2013-11-05 13:01:00,38.5,31.2,29.75,West,270,0.0,0.0,75,0.00,,,0.00,WUHU21623XXSP,2013-11-05 22:01:00,
2013-11-05 13:06:00,38.5,31.2,29.75,West,270,0.0,0.0,75,0.00,,,0.00,WUHU21623XXSP,2013-11-05 22:06:00,
2013-11-05 13:11:00,38.5,31.2,29.75,West,270,0.0,0.0,75,0.00,,,0.00,WUHU21623XXSP,2013-11-05 22:11:00,
2013-11-05 13:16:00,38.8,31.6,29.75,West,270,0.0,0.0,75,0.00,,,0.00,WUHU21623XXSP,2013-11-05 22:16:00,
2013-11-05 13:21:00,38.8,31.6,29.76,West,270,0.0,0.0,75,0.00,,,0.00,WUHU21623XXSP,2013-11-05 22:21:00,
2013-11-05 13:26:00,38.8,31.6,29.76,West,270,0.0,0.0,75,0.00,,,0.00,WUHU21623XXSP,2013-11-05 22:26:00,
2013-11-05 13:31:00,38.8,31.6,29.76,West,270,0.0,0.0,75,0.00,,,0.00,WUHU21623XXSP,2013-11-05 22:31:00,
2013-11-05 13:36:00,38.7,31.4,29.77,West,270,0.0,0.0,75,0.00,,,0.00,WUHU21623XXSP,2013-11-05 22:36:00,
2013-11-05 13:41:00,38.5,31.2,29.77,WSW,247,0.0,1.6,75,0.00,,,0.00,WUHU21623XXSP,2013-11-05 22:41:00,
2013-11-05 13:46:00,38.5,31.2,29.77,WSW,247,0.0,1.6,75,0.00,,,0.00,WUHU21623XXSP,2013-11-05 22:46:00,
2013-11-05 13:51:00,38.5,30.9,29.77,WSW,247,0.0,0.9,74,0.00,,,0.00,WUHU21623XXSP,2013-11-05 22:51:00,
2013-11-05 13:56:00,38.5,30.9,29.77,WSW,247,0.0,0.7,74,0.00,,,0.00,WUHU21623XXSP,2013-11-05 22:56:00,
2013-11-05 14:01:00,38.5,30.9,29.77,SW,225,0.0,2.2,74,0.00,,,0.00,WUHU21623XXSP,2013-11-05 23:01:00,
2013-11-05 14:06:00,38.7,31.0,29.78,SW,225,0.0,2.2,74,0.00,,,0.00,WUHU21623XXSP,2013-11-05 23:06:00,
2013-11-05 14:11:00,38.5,30.5,29.78,SW,225,0.0,2.7,73,0.00,,,0.00,WUHU21623XXSP,2013-11-05 23:11:00,
2013-11-05 14:16:00,38.5,30.5,29.78,SW,225,0.0,4.7,73,0.00,,,0.00,WUHU21623XXSP,2013-11-05 23:16:00,
2013-11-05 14:21:00,38.5,30.5,29.78,SW,225,0.0,4.7,73,0.00,,,0.00,WUHU21623XXSP,2013-11-05 23:21:00,
2013-11-05 14:26:00,38.5,30.5,29.79,WSW,247,0.0,3.6,73,0.00,,,0.00,WUHU21623XXSP,2013-11-05 23:26:00,
2013-11-05 14:31:00,38.3,30.4,29.78,SW,225,0.0,3.6,73,0.00,,,0.00,WUHU21623XXSP,2013-11-05 23:31:00,
2013-11-05 14:36:00,38.3,30.1,29.79,SW,225,0.0,3.4,72,0.00,,,0.00,WUHU21623XXSP,2013-11-05 23:36:00,
2013-11-05 14:41:00,38.1,29.9,29.79,SW,225,0.0,4.3,72,0.00,,,0.00,WUHU21623XXSP,2013-11-05 23:41:00,
2013-11-05 14:46:00,37.9,29.7,29.79,WSW,247,0.0,6.5,72,0.00,,,0.00,WUHU21623XXSP,2013-11-05 23:46:00,
2013-11-05 14:51:00,37.9,29.4,29.80,WNW,292,0.0,6.5,71,0.00,,,0.00,WUHU21623XXSP,2013-11-05 23:51:00,
2013-11-05 14:56:00,37.9,29.4,29.80,SW,225,1.1,2.2,71,0.00,,,0.00,WUHU21623XXSP,2013-11-05 23:56:00,
2013-11-05 15:01:00,37.6,28.7,29.80,West,270,0.0,2.9,70,0.00,,,0.00,WUHU21623XXSP,2013-11-06 00:01:00,
2013-11-05 15:06:00,37.6,28.7,29.80,WSW,247,0.0,2.9,70,0.00,,,0.00,WUHU21623XXSP,2013-11-06 00:06:00,
2013-11-05 15:11:00,37.4,28.2,29.80,WSW,247,0.0,0.9,69,0.00,,,0.00,WUHU21623XXSP,2013-11-06 00:11:00,
2013-11-05 15:16:00,37.2,27.6,29.81,SW,225,0.0,1.3,68,0.00,,,0.00,WUHU21623XXSP,2013-11-06 00:16:00,
2013-11-05 15:21:00,37.2,27.6,29.81,NNE,22,0.9,1.3,68,0.00,,,0.00,WUHU21623XXSP,2013-11-06 00:21:00,
2013-11-05 15:26:00,37.2,26.9,29.81,WSW,247,0.0,1.8,66,0.00,,,0.00,WUHU21623XXSP,2013-11-06 00:26:00,
2013-11-05 15:31:00,37.0,26.7,29.81,WNW,292,0.0,1.8,66,0.00,,,0.00,WUHU21623XXSP,2013-11-06 00:31:00,
2013-11-05 15:36:00,36.9,26.5,29.82,WSW,247,2.9,3.8,66,0.00,,,0.00,WUHU21623XXSP,2013-11-06 00:36:00,
2013-11-05 15:41:00,36.7,26.0,29.82,WSW,247,0.0,3.8,65,0.00,,,0.00,WUHU21623XXSP,2013-11-06 00:41:00,
2013-11-05 15:46:00,36.3,25.7,29.82,WSW,247,0.0,6.9,65,0.00,,,0.00,WUHU21623XXSP,2013-11-06 00:46:00,
2013-11-05 15:51:00,36.3,25.7,29.82,SW,225,0.0,6.9,65,0.00,,,0.00,WUHU21623XXSP,2013-11-06 00:51:00,
2013-11-05 15:56:00,36.1,25.5,29.82,SW,225,0.0,4.5,65,0.00,,,0.00,WUHU21623XXSP,2013-11-06 00:56:00,
2013-11-05 16:01:00,36.0,24.9,29.83,SW,225,0.0,4.5,64,0.00,,,0.00,WUHU21623XXSP,2013-11-06 01:01:00,
2013-11-05 16:06:00,35.8,24.8,29.83,WSW,247,0.0,5.6,64,0.00,,,0.00,WUHU21623XXSP,2013-11-06 01:06:00,
2013-11-05 16:11:00,35.8,24.8,29.83,SW,225,0.0,6.0,64,0.00,,,0.00,WUHU21623XXSP,2013-11-06 01:11:00,
2013-11-05 16:16:00,35.4,24.4,29.83,SW,225,0.0,6.0,64,0.00,,,0.00,WUHU21623XXSP,2013-11-06 01:16:00,
2013-11-05 16:21:00,35.4,24.4,29.84,West,270,0.4,6.0,64,0.00,,,0.00,WUHU21623XXSP,2013-11-06 01:21:00,
2013-11-05 16:26:00,35.2,24.3,29.84,SW,225,0.0,6.0,64,0.00,,,0.00,WUHU21623XXSP,2013-11-06 01:26:00,
2013-11-05 16:31:00,34.9,23.9,29.84,West,270,0.0,2.5,64,0.00,,,0.00,WUHU21623XXSP,2013-11-06 01:31:00,
2013-11-05 16:36:00,34.9,23.5,29.84,WNW,292,0.0,3.1,63,0.00,,,0.00,WUHU21623XXSP,2013-11-06 01:36:00,
2013-11-05 16:41:00,34.7,23.4,29.85,WSW,247,0.0,3.1,63,0.00,,,0.00,WUHU21623XXSP,2013-11-06 01:41:00,
2013-11-05 16:46:00,34.7,23.4,29.85,SW,225,0.0,3.1,63,0.00,,,0.00,WUHU21623XXSP,2013-11-06 01:46:00,
2013-11-05 16:51:00,34.5,23.2,29.85,NW,315,0.0,3.8,63,0.00,,,0.00,WUHU21623XXSP,2013-11-06 01:51:00,
2013-11-05 16:56:00,34.3,23.0,29.85,WSW,247,0.0,3.8,63,0.00,,,0.00,WUHU21623XXSP,2013-11-06 01:56:00,
2013-11-05 17:01:00,34.3,23.0,29.85,SSW,202,0.0,5.1,63,0.00,,,0.00,WUHU21623XXSP,2013-11-06 02:01:00,
2013-11-05 17:06:00,34.3,23.0,29.85,West,270,0.0,5.1,63,0.00,,,0.00,WUHU21623XXSP,2013-11-06 02:06:00,
2013-11-05 17:11:00,34.0,22.6,29.86,West,270,0.0,3.1,63,0.00,,,0.00,WUHU21623XXSP,2013-11-06 02:11:00,
2013-11-05 17:16:00,34.0,22.3,29.86,SW,225,0.0,3.1,62,0.00,,,0.00,WUHU21623XXSP,2013-11-06 02:16:00,
2013-11-05 17:21:00,33.8,22.1,29.87,NNW,337,0.9,3.1,62,0.00,,,0.00,WUHU21623XXSP,2013-11-06 02:21:00,
2013-11-05 17:26:00,33.6,21.9,29.87,West,270,0.0,4.9,62,0.00,,,0.00,WUHU21623XXSP,2013-11-06 02:26:00,
2013-11-05 17:31:00,33.6,21.9,29.87,NW,315,0.0,4.9,62,0.00,,,0.00,WUHU21623XXSP,2013-11-06 02:31:00,
2013-11-05 17:36:00,33.3,21.6,29.87,SW,225,0.0,4.0,62,0.00,,,0.00,WUHU21623XXSP,2013-11-06 02:36:00,
2013-11-05 17:41:00,33.1,21.5,29.88,West,270,0.0,6.7,62,0.00,,,0.00,WUHU21623XXSP,2013-11-06 02:41:00,
2013-11-05 17:46:00,32.7,21.5,29.88,SW,225,0.0,6.7,63,0.00,,,0.00,WUHU21623XXSP,2013-11-06 02:46:00,
2013-11-05 17:51:00,32.7,21.5,29.88,NNE,22,0.0,1.8,63,0.00,,,0.00,WUHU21623XXSP,2013-11-06 02:51:00,
2013-11-05 17:56:00,32.4,21.2,29.88,North,0,0.0,2.5,63,0.00,,,0.00,WUHU21623XXSP,2013-11-06 02:56:00,
2013-11-05 18:01:00,32.2,21.0,29.88,NW,315,0.0,2.5,63,0.00,,,0.00,WUHU21623XXSP,2013-11-06 03:01:00,
2013-11-05 18:06:00,32.0,20.8,29.88,NW,315,0.0,1.3,63,0.00,,,0.00,WUHU21623XXSP,2013-11-06 03:06:00,
2013-11-05 18:11:00,32.2,21.0,29.88,NW,315,0.0,6.9,63,0.00,,,0.00,WUHU21623XXSP,2013-11-06 03:11:00,
2013-11-05 18:16:00,32.2,21.0,29.89,North,0,0.0,6.9,63,0.00,,,0.00,WUHU21623XXSP,2013-11-06 03:16:00,
2013-11-05 18:21:00,32.2,20.6,29.89,NW,315,0.0,3.6,62,0.00,,,0.00,WUHU21623XXSP,2013-11-06 03:21:00,
2013-11-05 18:26:00,32.4,20.8,29.89,WNW,292,2.2,6.0,62,0.00,,,0.00,WUHU21623XXSP,2013-11-06 03:26:00,
2013-11-05 18:31:00,32.4,20.8,29.89,SW,225,0.0,6.0,62,0.00,,,0.00,WUHU21623XXSP,2013-11-06 03:31:00,
2013-11-05 18:36:00,32.2,20.6,29.89,NW,315,0.0,3.4,62,0.00,,,0.00,WUHU21623XXSP,2013-11-06 03:36:00,
2013-11-05 18:41:00,32.2,20.6,29.89,WSW,247,0.0,2.5,62,0.00,,,0.00,WUHU21623XXSP,2013-11-06 03:41:00,
2013-11-05 18:46:00,32.0,20.5,29.90,NE,45,0.0,2.7,62,0.00,,,0.00,WUHU21623XXSP,2013-11-06 03:46:00,
2013-11-05 18:51:00,32.0,20.1,29.90,West,270,0.0,3.8,61,0.00,,,0.00,WUHU21623XXSP,2013-11-06 03:51:00,
2013-11-05 18:56:00,32.2,20.3,29.90,NNE,22,0.0,5.4,61,0.00,,,0.00,WUHU21623XXSP,2013-11-06 03:56:00,
2013-11-05 19:01:00,32.2,19.5,29.91,SSE,157,0.0,7.2,59,0.00,,,0.00,WUHU21623XXSP,2013-11-06 04:01:00,
2013-11-05 19:06:00,32.2,19.5,29.90,West,270,1.3,7.2,59,0.00,,,0.00,WUHU21623XXSP,2013-11-06 04:06:00,
2013-11-05 19:11:00,32.2,19.5,29.91,NNW,337,0.0,6.7,59,0.00,,,0.00,WUHU21623XXSP,2013-11-06 04:11:00,
2013-11-05 19:16:00,32.0,19.3,29.91,NW,315,0.0,6.0,59,0.00,,,0.00,WUHU21623XXSP,2013-11-06 04:16:00,
2013-11-05 19:21:00,31.8,19.6,29.91,West,270,0.0,4.3,60,0.00,,,0.00,WUHU21623XXSP,2013-11-06 04:21:00,
2013-11-05 19:26:00,31.6,19.4,29.91,NNW,337,0.0,4.3,60,0.00,,,0.00,WUHU21623XXSP,2013-11-06 04:26:00,
2013-11-05 19:31:00,31.6,19.4,29.91,WNW,292,0.0,6.0,60,0.00,,,0.00,WUHU21623XXSP,2013-11-06 04:31:00,
2013-11-05 19:36:00,31.8,19.1,29.91,NNW,337,0.0,6.9,59,0.00,,,0.00,WUHU21623XXSP,2013-11-06 04:36:00,
2013-11-05 19:41:00,31.8,19.1,29.91,North,0,4.5,6.9,59,0.00,,,0.00,WUHU21623XXSP,2013-11-06 04:41:00,
2013-11-05 19:46:00,31.8,19.1,29.92,NW,315,1.6,6.3,59,0.00,,,0.00,WUHU21623XXSP,2013-11-06 04:46:00,
2013-11-05 19:51:00,31.8,19.1,29.91,NW,315,0.0,6.3,59,0.00,,,0.00,WUHU21623XXSP,2013-11-06 04:51:00,
2013-11-05 19:56:00,32.0,19.3,29.92,NNW,337,0.0,4.5,59,0.00,,,0.00,WUHU21623XXSP,2013-11-06 04:56:00,
2013-11-05 20:01:00,32.2,19.5,29.92,NW,315,0.0,4.0,59,0.00,,,0.00,WUHU21623XXSP,2013-11-06 05:01:00,
2013-11-05 20:02:00,32.2,19.5,29.92,NW,315,0.0,4.0,59,0.00,,,0.00,WUHU21623XXSP,2013-11-06 05:02:00,
2013-11-05 20:07:00,31.8,19.6,29.92,NW,315,0.0,4.0,60,0.00,,,0.00,WUHU21623XXSP,2013-11-06 05:07:00,
2013-11-05 20:12:00,31.8,19.6,29.92,NNW,337,1.3,2.2,60,0.00,,,0.00,WUHU21623XXSP,2013-11-06 05:12:00,
2013-11-05 20:17:00,31.8,19.1,29.92,NNW,337,0.0,3.6,59,0.00,,,0.00,WUHU21623XXSP,2013-11-06 05:17:00,
2013-11-05 20:22:00,31.8,19.6,29.93,North,0,0.0,3.6,60,0.00,,,0.00,WUHU21623XXSP,2013-11-06 05:22:00,
2013-11-05 20:27:00,31.6,19.4,29.93,North,0,0.0,3.4,60,0.00,,,0.00,WUHU21623XXSP,2013-11-06 05:27:00,
2013-11-05 20:32:00,31.5,19.6,29.93,North,0,0.0,1.3,61,0.00,,,0.00,WUHU21623XXSP,2013-11-06 05:32:00,
2013-11-05 20:37:00,31.3,19.4,29.93,NNW,337,0.0,0.0,61,0.00,,,0.00,WUHU21623XXSP,2013-11-06 05:37:00,
2013-11-05 20:42:00,31.1,19.6,29.94,NNW,337,0.0,0.0,62,0.00,,,0.00,WUHU21623XXSP,2013-11-06 05:42:00,
2013-11-05 20:47:00,30.9,19.4,29.94,NNW,337,0.0,0.0,62,0.00,,,0.00,WUHU21623XXSP,2013-11-06 05:47:00,
2013-11-05 20:52:00,31.1,19.6,29.94,NNW,337,0.9,0.9,62,0.00,,,0.00,WUHU21623XXSP,2013-11-06 05:52:00,
2013-11-05 20:57:00,31.3,19.8,29.94,NNW,337,0.0,1.6,62,0.00,,,0.00,WUHU21623XXSP,2013-11-06 05:57:00,
2013-11-05 21:02:00,31.3,19.4,29.94,NNW,337,0.0,4.0,61,0.00,,,0.00,WUHU21623XXSP,2013-11-06 06:02:00,
2013-11-05 21:07:00,31.1,19.2,29.94,North,0,0.0,4.0,61,0.00,,,0.00,WUHU21623XXSP,2013-11-06 06:07:00,
2013-11-05 21:12:00,31.1,19.6,29.95,North,0,0.0,2.9,62,0.00,,,0.00,WUHU21623XXSP,2013-11-06 06:12:00,
2013-11-05 21:17:00,30.9,19.4,29.95,NNW,337,0.4,3.4,62,0.00,,,0.00,WUHU21623XXSP,2013-11-06 06:17:00,
2013-11-05 21:22:00,30.9,19.4,29.95,NNW,337,0.0,3.4,62,0.00,,,0.00,WUHU21623XXSP,2013-11-06 06:22:00,
2013-11-05 21:27:00,30.9,19.2,29.95,NNW,337,2.0,4.9,61,0.00,,,0.00,WUHU21623XXSP,2013-11-06 06:27:00,
2013-11-05 21:32:00,31.1,19.2,29.96,NNW,337,2.7,5.4,61,0.00,,,0.00,WUHU21623XXSP,2013-11-06 06:32:00,
2013-11-05 21:37:00,31.3,19.4,29.96,NW,315,0.0,5.4,61,0.00,,,0.00,WUHU21623XXSP,2013-11-06 06:37:00,
2013-11-05 21:42:00,31.3,19.4,29.96,NNW,337,0.0,5.4,61,0.00,,,0.00,WUHU21623XXSP,2013-11-06 06:42:00,
2013-11-05 21:47:00,31.3,19.4,29.96,NW,315,4.0,4.9,61,0.00,,,0.00,WUHU21623XXSP,2013-11-06 06:47:00,
2013-11-05 21:52:00,31.6,19.8,29.96,NW,315,2.7,4.9,61,0.00,,,0.00,WUHU21623XXSP,2013-11-06 06:52:00,
2013-11-05 21:57:00,31.6,19.8,29.96,NNW,337,3.8,6.5,61,0.00,,,0.00,WUHU21623XXSP,2013-11-06 06:57:00,
2013-11-05 22:02:00,31.6,19.8,29.97,NW,315,4.3,6.5,61,0.00,,,0.00,WUHU21623XXSP,2013-11-06 07:02:00,
2013-11-05 22:07:00,31.6,19.8,29.97,NW,315,3.6,6.0,61,0.00,,,0.00,WUHU21623XXSP,2013-11-06 07:07:00,
2013-11-05 22:12:00,31.8,19.8,29.97,NNW,337,1.3,6.0,61,0.00,,,0.00,WUHU21623XXSP,2013-11-06 07:12:00,
2013-11-05 22:17:00,31.6,19.8,29.98,NNW,337,2.7,5.1,61,0.00,,,0.00,WUHU21623XXSP,2013-11-06 07:17:00,
2013-11-05 22:22:00,31.6,19.8,29.98,NNW,337,0.0,5.1,61,0.00,,,0.00,WUHU21623XXSP,2013-11-06 07:22:00,
2013-11-05 22:27:00,31.5,19.8,29.98,NNW,337,0.0,4.9,61,0.00,,,0.00,WUHU21623XXSP,2013-11-06 07:27:00,
2013-11-05 22:32:00,31.5,19.6,29.98,NNW,337,1.8,4.9,61,0.00,,,0.00,WUHU21623XXSP,2013-11-06 07:32:00,
2013-11-05 22:37:00,31.3,19.4,29.98,North,0,3.4,7.6,61,0.00,,,0.00,WUHU21623XXSP,2013-11-06 07:37:00,
2013-11-05 22:42:00,31.3,19.4,29.98,NW,315,4.9,8.1,61,0.00,,,0.00,WUHU21623XXSP,2013-11-06 07:42:00,
2013-11-05 22:47:00,31.3,19.4,29.99,NW,315,0.0,8.1,61,0.00,,,0.00,WUHU21623XXSP,2013-11-06 07:47:00,
2013-11-05 22:52:00,30.9,19.0,29.99,NW,315,4.9,7.2,61,0.00,,,0.00,WUHU21623XXSP,2013-11-06 07:52:00,
2013-11-05 22:57:00,30.7,18.9,29.99,NW,315,2.9,8.3,61,0.00,,,0.00,WUHU21623XXSP,2013-11-06 07:57:00,
2013-11-05 23:02:00,30.4,18.5,29.99,NW,315,4.0,8.3,61,0.00,,,0.00,WUHU21623XXSP,2013-11-06 08:02:00,
2013-11-05 23:07:00,30.0,18.2,29.99,NW,315,0.0,7.4,61,0.00,,,0.00,WUHU21623XXSP,2013-11-06 08:07:00,
2013-11-05 23:12:00,29.8,18.0,29.99,NW,315,2.2,7.2,61,0.00,,,0.00,WUHU21623XXSP,2013-11-06 08:12:00,
2013-11-05 23:17:00,29.3,17.5,29.99,NNW,337,2.9,6.5,61,0.00,,,0.00,WUHU21623XXSP,2013-11-06 08:17:00,
2013-11-05 23:22:00,29.1,17.7,29.99,NNW,337,0.9,4.7,62,0.00,,,0.00,WUHU21623XXSP,2013-11-06 08:22:00,
2013-11-05 23:27:00,28.9,17.5,29.99,NNW,337,2.2,6.5,62,0.00,,,0.00,WUHU21623XXSP,2013-11-06 08:27:00,
2013-11-05 23:32:00,28.8,17.4,29.99,NW,315,1.6,6.5,62,0.00,,,0.00,WUHU21623XXSP,2013-11-06 08:32:00,
2013-11-05 23:37:00,28.8,17.4,29.99,NNW,337,0.0,6.3,62,0.00,,,0.00,WUHU21623XXSP,2013-11-06 08:37:00,
2013-11-05 23:42:00,28.6,17.2,29.99,North,0,1.8,5.6,62,0.00,,,0.00,WUHU21623XXSP,2013-11-06 08:42:00,
2013-11-05 23:47:00,28.2,16.9,30.00,North,0,4.0,5.1,62,0.00,,,0.00,WUHU21623XXSP,2013-11-06 08:47:00,
2013-11-05 23:52:00,28.2,16.9,30.00,North,0,1.8,4.5,62,0.00,,,0.00,WUHU21623XXSP,2013-11-06 08:52:00,
2013-11-05 23:57:00,28.0,16.7,29.99,NNW,337,2.5,4.5,62,0.00,,,0.00,WUHU21623XXSP,2013-11-06 08:57:00,